Time;durP1;ratioP1;P1;durP2;ratioP2;P2;SDS_P1;SDS_P2;PMS_P1;PMS_P2;Temp;Humidity;BMP_temperature;BMP_pressure;BME280_temperature;BME280_humidity;BME280_pressure;Samples;Min_cycle;Max_cycle;Signal;HPM_P1;HPM_P2
2021/12/01 00:00:53;;;;;;;254.67;37.27;;;6.60;99.90;;;;;;5121982;27;20517;-77
2021/12/01 00:03:22;;;;;;;182.53;33.93;;;6.70;99.90;;;;;;5147829;27;21019;-77
2021/12/01 00:05:51;;;;;;;136.47;23.80;;;6.70;99.90;;;;;;5119677;27;20439;-77
2021/12/01 00:08:19;;;;;;;150.27;29.00;;;6.70;99.90;;;;;;5128142;27;20438;-77
2021/12/01 00:10:48;;;;;;;149.30;25.47;;;6.70;99.90;;;;;;5137266;27;20442;-77
2021/12/01 00:13:20;;;;;;;125.53;23.00;;;6.70;99.90;;;;;;5137487;27;20476;-77
2021/12/01 00:15:52;;;;;;;126.30;24.67;;;6.70;99.90;;;;;;5137386;27;20537;-77
2021/12/01 00:18:20;;;;;;;121.60;22.93;;;6.70;99.90;;;;;;5136250;27;20446;-76
2021/12/01 00:20:48;;;;;;;192.07;33.43;;;6.70;99.90;;;;;;5137110;27;20537;-77
2021/12/01 00:23:17;;;;;;;177.77;31.03;;;6.70;99.90;;;;;;5137318;27;20466;-77
2021/12/01 00:25:46;;;;;;;283.83;36.37;;;6.70;99.90;;;;;;5137077;27;20446;-77
2021/12/01 00:28:14;;;;;;;149.70;23.80;;;6.70;99.90;;;;;;5137478;27;20446;-77
2021/12/01 00:30:43;;;;;;;173.40;30.43;;;6.70;99.90;;;;;;5136865;27;20490;-77
2021/12/01 00:33:17;;;;;;;128.87;28.20;;;6.80;99.90;;;;;;5155442;27;20998;-77
2021/12/01 00:35:46;;;;;;;221.03;29.90;;;6.80;99.90;;;;;;5155703;27;20899;-77
2021/12/01 00:38:15;;;;;;;110.93;21.50;;;6.80;99.90;;;;;;5156195;27;20947;-77
2021/12/01 00:40:44;;;;;;;151.10;28.90;;;6.80;99.90;;;;;;5155732;27;20528;-77
2021/12/01 00:43:17;;;;;;;108.40;27.10;;;6.80;99.90;;;;;;5136949;27;20465;-77
2021/12/01 00:45:51;;;;;;;165.70;29.30;;;6.80;99.90;;;;;;5136802;27;20437;-77
2021/12/01 00:48:20;;;;;;;102.40;23.67;;;6.80;99.90;;;;;;5136895;27;20427;-77
2021/12/01 00:50:49;;;;;;;193.10;33.77;;;6.80;99.90;;;;;;5136903;27;20545;-77
2021/12/01 00:53:17;;;;;;;200.83;36.07;;;6.80;99.90;;;;;;5155591;27;20546;-76
2021/12/01 00:55:47;;;;;;;184.30;30.30;;;6.80;99.90;;;;;;5136539;27;20445;-77
2021/12/01 00:58:16;;;;;;;228.70;35.93;;;6.80;99.90;;;;;;5136845;27;20541;-77
2021/12/01 01:00:48;;;;;;;207.83;33.27;;;6.90;99.90;;;;;;5136790;27;20782;-77
2021/12/01 01:03:18;;;;;;;174.97;26.03;;;6.90;99.90;;;;;;5143084;27;20826;-76
2021/12/01 01:05:49;;;;;;;204.57;32.93;;;6.90;99.90;;;;;;5124496;28;20440;-77
2021/12/01 01:08:18;;;;;;;168.63;29.30;;;6.90;99.90;;;;;;5146353;27;20442;-77
2021/12/01 01:11:08;;;;;;;197.40;35.80;;;6.90;99.90;;;;;;5128303;27;20483;-77
2021/12/01 01:16:24;;;;;;;206.97;29.70;;;6.90;99.90;;;;;;5116142;28;20456;-77
2021/12/01 01:18:55;;;;;;;100.37;26.23;;;6.90;99.90;;;;;;5134160;28;20464;-77
2021/12/01 01:21:27;;;;;;;157.90;22.30;;;6.90;99.90;;;;;;5116039;28;20485;-77
2021/12/01 01:23:56;;;;;;;180.70;34.87;;;6.90;99.90;;;;;;5115789;28;20432;-76
2021/12/01 01:26:25;;;;;;;141.53;27.93;;;6.90;99.90;;;;;;5115694;28;20503;-77
2021/12/01 01:28:53;;;;;;;213.67;26.87;;;6.90;99.90;;;;;;5136163;27;20504;-77
2021/12/01 01:31:22;;;;;;;102.03;22.93;;;7.00;99.90;;;;;;5119897;27;20929;-77
2021/12/01 01:33:53;;;;;;;181.43;31.20;;;7.00;99.90;;;;;;5138270;27;20462;-77
2021/12/01 01:36:22;;;;;;;207.67;32.13;;;7.00;99.90;;;;;;5138128;27;20472;-77
2021/12/01 01:38:52;;;;;;;57.10;20.73;;;7.00;99.90;;;;;;5119587;27;20530;-77
2021/12/01 01:41:21;;;;;;;163.50;29.57;;;7.00;99.90;;;;;;5120899;27;20748;-77
2021/12/01 01:43:51;;;;;;;126.17;22.50;;;7.00;99.90;;;;;;5119375;27;20461;-77
2021/12/01 01:46:20;;;;;;;176.07;24.93;;;7.10;99.90;;;;;;5120380;27;20522;-76
2021/12/01 01:48:52;;;;;;;150.60;23.83;;;7.10;99.90;;;;;;5138177;27;20790;-77
2021/12/01 01:51:23;;;;;;;110.57;21.30;;;7.10;99.90;;;;;;5119592;27;20970;-77
2021/12/01 01:53:56;;;;;;;133.27;19.80;;;7.10;99.90;;;;;;5137977;27;20505;-77
2021/12/01 01:56:25;;;;;;;206.87;35.33;;;7.10;99.90;;;;;;5138111;27;20418;-76
2021/12/01 01:58:55;;;;;;;277.20;34.53;;;7.10;99.90;;;;;;5137873;27;20442;-77
2021/12/01 02:01:43;;;;;;;148.70;26.63;;;7.10;99.90;;;;;;5137995;27;20442;-77
2021/12/01 02:04:12;;;;;;;170.50;24.97;;;7.20;99.90;;;;;;5137725;27;20421;-77
2021/12/01 02:06:40;;;;;;;158.97;22.20;;;7.20;99.90;;;;;;5138620;27;20822;-76
2021/12/01 02:09:09;;;;;;;161.43;26.87;;;7.20;99.90;;;;;;5131968;27;20524;-77
2021/12/01 02:11:38;;;;;;;121.97;27.73;;;7.20;99.90;;;;;;5124691;27;20437;-77
2021/12/01 02:14:06;;;;;;;220.80;28.23;;;7.30;99.90;;;;;;5128155;27;21031;-76
2021/12/01 02:16:35;;;;;;;143.67;26.47;;;7.30;99.90;;;;;;5138760;27;20473;-76
2021/12/01 02:19:04;;;;;;;70.43;23.00;;;7.30;99.90;;;;;;5129528;27;20476;-76
2021/12/01 02:21:34;;;;;;;66.90;15.97;;;7.30;99.90;;;;;;5139095;27;20944;-77
2021/12/01 02:24:05;;;;;;;170.60;23.27;;;7.40;99.90;;;;;;5139432;27;20447;-77
2021/12/01 02:26:36;;;;;;;312.77;44.30;;;7.40;99.90;;;;;;5139484;27;20452;-77
2021/12/01 02:29:08;;;;;;;125.13;22.63;;;7.40;99.90;;;;;;5139517;27;20529;-77
2021/12/01 02:31:37;;;;;;;135.70;23.50;;;7.40;99.90;;;;;;5139159;27;20454;-77
2021/12/01 02:34:07;;;;;;;159.37;31.97;;;7.50;99.90;;;;;;5139430;27;20506;-77
2021/12/01 02:36:37;;;;;;;200.23;38.83;;;7.50;99.90;;;;;;5139320;27;20442;-76
2021/12/01 02:39:09;;;;;;;212.47;33.97;;;7.50;99.90;;;;;;5139204;27;20600;-77
2021/12/01 02:41:38;;;;;;;127.83;23.10;;;7.50;99.90;;;;;;5137891;27;20430;-77
2021/12/01 02:44:08;;;;;;;220.73;40.53;;;7.50;99.90;;;;;;5157758;27;20451;-77
2021/12/01 02:46:37;;;;;;;190.67;32.03;;;7.60;99.90;;;;;;5138888;27;20932;-77
2021/12/01 02:49:06;;;;;;;224.43;36.67;;;7.60;99.90;;;;;;5157845;27;20439;-77
2021/12/01 02:51:36;;;;;;;205.20;31.23;;;7.60;99.90;;;;;;5139591;27;20467;-77
2021/12/01 02:54:06;;;;;;;193.13;34.67;;;7.60;99.90;;;;;;5138698;27;20466;-77
2021/12/01 02:56:35;;;;;;;153.67;34.03;;;7.70;99.90;;;;;;5138765;27;20495;-77
2021/12/01 02:59:05;;;;;;;237.50;39.77;;;7.70;99.90;;;;;;5138884;27;20536;-77
2021/12/01 03:01:34;;;;;;;195.73;42.77;;;7.80;99.90;;;;;;5138669;27;20502;-77
2021/12/01 03:04:02;;;;;;;182.83;35.50;;;7.80;99.90;;;;;;5138580;27;20446;-76
2021/12/01 03:06:33;;;;;;;198.77;40.00;;;7.80;99.90;;;;;;5139437;27;20533;-76
2021/12/01 03:09:04;;;;;;;125.30;34.00;;;7.90;99.90;;;;;;5153675;27;20800;-77
2021/12/01 03:11:33;;;;;;;163.17;40.67;;;7.90;99.90;;;;;;5144115;27;20432;-77
2021/12/01 03:14:01;;;;;;;152.40;36.63;;;7.90;99.90;;;;;;5123904;27;20792;-77
2021/12/01 03:16:29;;;;;;;160.27;40.60;;;8.00;99.90;;;;;;5141279;27;20525;-76
2021/12/01 03:18:58;;;;;;;237.43;49.83;;;8.00;99.90;;;;;;5138062;27;20448;-77
2021/12/01 03:21:26;;;;;;;204.23;39.13;;;8.10;99.90;;;;;;5156918;27;20446;-76
2021/12/01 03:23:54;;;;;;;109.63;38.17;;;8.10;99.90;;;;;;5138155;27;20447;-77
2021/12/01 03:26:24;;;;;;;212.07;43.77;;;8.10;99.90;;;;;;5137650;27;20533;-77
2021/12/01 03:28:52;;;;;;;290.60;51.73;;;8.20;99.90;;;;;;5137938;27;20453;-76
2021/12/01 03:31:20;;;;;;;241.60;53.73;;;8.20;99.90;;;;;;5156695;27;20450;-76
2021/12/01 03:33:49;;;;;;;234.03;51.77;;;8.30;99.90;;;;;;5137789;27;20555;-76
2021/12/01 03:36:17;;;;;;;271.07;49.57;;;8.30;99.90;;;;;;5156677;27;20470;-76
2021/12/01 03:38:46;;;;;;;101.53;40.23;;;8.30;99.90;;;;;;5156721;27;20435;-77
2021/12/01 03:41:14;;;;;;;241.03;43.90;;;8.40;99.90;;;;;;5156671;27;20435;-77
2021/12/01 03:43:44;;;;;;;200.77;45.93;;;8.40;99.90;;;;;;5156278;27;20910;-77
2021/12/01 03:46:12;;;;;;;244.03;47.83;;;8.50;99.90;;;;;;5137789;27;21010;-76
2021/12/01 03:48:41;;;;;;;192.70;44.00;;;8.50;99.90;;;;;;5137712;27;20536;-77
2021/12/01 03:51:09;;;;;;;268.67;44.27;;;8.50;99.90;;;;;;5137466;27;20543;-77
2021/12/01 03:53:37;;;;;;;299.87;48.43;;;8.60;99.90;;;;;;5137526;27;20479;-77
2021/12/01 03:56:06;;;;;;;169.23;37.93;;;8.60;99.90;;;;;;5137665;27;21017;-77
2021/12/01 03:58:34;;;;;;;295.17;54.63;;;8.60;99.90;;;;;;5138153;27;20440;-76
2021/12/01 04:01:03;;;;;;;222.43;36.43;;;8.70;99.90;;;;;;5137504;27;20545;-76
2021/12/01 04:03:32;;;;;;;224.13;41.40;;;8.70;99.90;;;;;;5137598;27;20460;-76
2021/12/01 04:06:00;;;;;;;177.70;29.90;;;8.80;99.90;;;;;;5159728;27;20480;-77
2021/12/01 04:08:28;;;;;;;130.53;28.37;;;8.80;99.90;;;;;;5149032;27;20479;-76
2021/12/01 04:10:56;;;;;;;285.93;41.93;;;8.80;99.90;;;;;;5153739;27;20468;-76
2021/12/01 04:13:24;;;;;;;185.83;32.07;;;8.90;99.90;;;;;;5153094;27;20564;-76
2021/12/01 04:15:53;;;;;;;227.87;31.07;;;8.90;99.90;;;;;;5169168;27;20487;-76
2021/12/01 04:18:22;;;;;;;156.80;24.53;;;8.90;99.90;;;;;;5152119;27;20513;-76
2021/12/01 04:20:50;;;;;;;292.13;32.87;;;9.00;99.90;;;;;;5151427;27;20517;-76
2021/12/01 04:23:19;;;;;;;182.20;22.83;;;9.00;99.90;;;;;;5144433;27;20494;-76
2021/12/01 04:25:47;;;;;;;157.07;23.07;;;9.00;99.90;;;;;;5137937;27;20534;-76
2021/12/01 04:28:15;;;;;;;212.20;29.17;;;9.10;99.90;;;;;;5137210;27;20546;-77
2021/12/01 04:30:43;;;;;;;178.57;21.20;;;9.10;99.90;;;;;;5136932;27;20521;-77
2021/12/01 04:33:14;;;;;;;245.97;33.80;;;9.10;99.90;;;;;;5155927;27;20450;-77
2021/12/01 04:35:46;;;;;;;223.90;22.63;;;9.10;99.90;;;;;;5136904;27;20473;-77
2021/12/01 04:38:14;;;;;;;199.63;24.03;;;9.10;99.90;;;;;;5137056;27;20450;-76
2021/12/01 04:40:42;;;;;;;298.07;37.30;;;9.20;99.90;;;;;;5136970;27;20446;-76
2021/12/01 04:43:10;;;;;;;307.23;32.00;;;9.20;99.90;;;;;;5137160;27;20493;-76
2021/12/01 04:45:42;;;;;;;179.47;21.93;;;9.20;99.90;;;;;;5136885;27;20868;-77
2021/12/01 04:48:10;;;;;;;268.77;29.57;;;9.20;99.90;;;;;;5136990;27;20472;-77
2021/12/01 04:50:39;;;;;;;223.67;27.83;;;9.20;99.90;;;;;;5136946;27;20958;-77
2021/12/01 04:53:08;;;;;;;369.83;33.13;;;9.20;99.90;;;;;;5136736;27;20518;-76
2021/12/01 04:55:38;;;;;;;265.97;28.37;;;9.20;99.90;;;;;;5155611;27;20501;-77
2021/12/01 04:58:07;;;;;;;161.40;23.07;;;9.20;99.90;;;;;;5137584;27;20822;-76
2021/12/01 05:00:36;;;;;;;137.73;17.97;;;9.20;99.90;;;;;;5136757;27;20533;-77
2021/12/01 05:03:05;;;;;;;193.77;26.20;;;9.20;99.90;;;;;;5136527;27;20469;-77
2021/12/01 05:05:50;;;;;;;208.37;31.47;;;9.30;99.90;;;;;;5141434;27;20927;-77
2021/12/01 05:08:22;;;;;;;134.00;16.13;;;9.30;99.90;;;;;;5140860;27;20441;-76
2021/12/01 05:10:51;;;;;;;251.77;31.50;;;9.30;99.90;;;;;;5140915;27;20805;-76
2021/12/01 05:13:21;;;;;;;206.60;25.63;;;9.30;99.90;;;;;;5159434;27;20549;-76
2021/12/01 05:15:49;;;;;;;165.83;20.43;;;9.30;99.90;;;;;;5140514;27;20544;-77
2021/12/01 05:18:17;;;;;;;293.60;31.00;;;9.30;99.90;;;;;;5140583;27;20436;-76
2021/12/01 05:20:45;;;;;;;304.90;40.07;;;9.30;99.90;;;;;;5140607;27;20544;-76
2021/12/01 05:23:15;;;;;;;315.67;48.07;;;9.30;99.90;;;;;;5158978;27;20514;-77
2021/12/01 05:25:47;;;;;;;232.83;29.30;;;9.30;99.90;;;;;;5159356;27;20434;-77
2021/12/01 05:28:15;;;;;;;114.43;20.63;;;9.30;99.90;;;;;;5141084;27;20507;-76
2021/12/01 05:30:44;;;;;;;141.93;15.33;;;9.30;99.90;;;;;;5140273;27;20451;-77
2021/12/01 05:33:14;;;;;;;129.13;20.47;;;9.30;99.90;;;;;;5140187;27;20473;-77
2021/12/01 05:35:46;;;;;;;216.73;28.17;;;9.30;99.90;;;;;;5140203;27;20457;-76
2021/12/01 05:38:16;;;;;;;174.47;26.23;;;9.30;99.90;;;;;;5140113;27;20445;-77
2021/12/01 05:40:47;;;;;;;238.43;30.63;;;9.30;99.90;;;;;;5159026;27;20433;-76
2021/12/01 05:43:15;;;;;;;352.50;34.20;;;9.30;99.90;;;;;;5158852;27;20549;-77
2021/12/01 05:45:45;;;;;;;364.13;38.97;;;9.30;99.90;;;;;;5140043;27;20449;-76
2021/12/01 05:48:13;;;;;;;264.07;31.03;;;9.30;99.90;;;;;;5158562;27;20444;-77
2021/12/01 05:50:42;;;;;;;206.73;20.83;;;9.30;99.90;;;;;;5158518;27;20472;-77
2021/12/01 05:53:10;;;;;;;201.20;22.27;;;9.30;99.90;;;;;;5140164;27;20457;-76
2021/12/01 05:55:39;;;;;;;230.23;28.50;;;9.30;99.90;;;;;;5139751;27;20519;-77
2021/12/01 05:58:09;;;;;;;410.20;37.97;;;9.30;99.90;;;;;;5158481;27;20435;-77
2021/12/01 06:00:37;;;;;;;155.23;20.53;;;9.30;99.90;;;;;;5139985;27;20442;-77
2021/12/01 06:03:06;;;;;;;254.00;30.33;;;9.30;99.90;;;;;;5158288;27;20449;-77
2021/12/01 06:05:34;;;;;;;216.67;32.43;;;9.30;99.90;;;;;;5139597;27;20448;-76
2021/12/01 06:08:02;;;;;;;196.73;29.73;;;9.30;99.90;;;;;;5139723;27;20449;-76
2021/12/01 06:10:30;;;;;;;148.70;17.93;;;9.30;99.90;;;;;;5139741;27;20853;-77
2021/12/01 06:12:59;;;;;;;306.30;41.07;;;9.30;99.90;;;;;;5139474;27;20455;-76
2021/12/01 06:15:31;;;;;;;165.07;21.80;;;9.30;99.90;;;;;;5139549;27;20641;-76
2021/12/01 06:17:59;;;;;;;280.53;32.77;;;9.30;99.90;;;;;;5158472;27;20410;-76
2021/12/01 06:20:27;;;;;;;276.00;31.00;;;9.30;99.90;;;;;;5139504;27;20814;-77
2021/12/01 06:22:56;;;;;;;278.53;32.83;;;9.30;99.90;;;;;;5158228;27;20531;-76
2021/12/01 06:25:24;;;;;;;123.40;20.30;;;9.30;99.90;;;;;;5157959;27;20441;-76
2021/12/01 06:27:54;;;;;;;288.93;35.20;;;9.30;99.90;;;;;;5158116;27;20434;-76
2021/12/01 06:30:24;;;;;;;212.83;22.20;;;9.30;99.90;;;;;;5158530;27;20445;-77
2021/12/01 06:32:54;;;;;;;279.30;35.10;;;9.30;99.90;;;;;;5157752;27;20511;-76
2021/12/01 06:35:22;;;;;;;288.87;37.73;;;9.30;99.90;;;;;;5139230;27;20452;-77
2021/12/01 06:37:53;;;;;;;174.13;19.53;;;9.30;99.90;;;;;;5139346;27;20517;-76
2021/12/01 06:40:22;;;;;;;207.13;27.07;;;9.30;99.90;;;;;;5158073;27;20505;-76
2021/12/01 06:42:50;;;;;;;218.47;28.73;;;9.30;99.90;;;;;;5157779;27;20461;-77
2021/12/01 06:45:18;;;;;;;191.23;21.03;;;9.20;99.90;;;;;;5157477;27;20430;-76
2021/12/01 06:47:47;;;;;;;273.90;33.30;;;9.20;99.90;;;;;;5139066;27;20441;-76
2021/12/01 06:50:17;;;;;;;289.30;33.13;;;9.20;99.90;;;;;;5138991;27;20464;-77
2021/12/01 06:52:46;;;;;;;293.00;41.83;;;9.20;99.90;;;;;;5139411;27;20476;-76
2021/12/01 06:55:14;;;;;;;227.83;31.37;;;9.20;99.90;;;;;;5139403;27;20541;-76
2021/12/01 06:57:42;;;;;;;254.63;36.57;;;9.20;99.90;;;;;;5138819;27;21110;-76
2021/12/01 07:00:13;;;;;;;281.40;42.17;;;9.20;99.90;;;;;;5157182;27;20443;-76
2021/12/01 07:02:42;;;;;;;220.60;22.20;;;9.20;99.90;;;;;;5138632;27;20541;-76
2021/12/01 07:05:11;;;;;;;247.60;21.40;;;9.20;99.90;;;;;;5157426;27;21000;-76
2021/12/01 07:07:41;;;;;;;243.90;27.90;;;9.10;99.90;;;;;;5138636;27;20440;-76
2021/12/01 07:10:13;;;;;;;156.73;21.73;;;9.20;99.90;;;;;;5157046;27;20509;-76
2021/12/01 07:12:42;;;;;;;230.37;25.33;;;9.10;99.90;;;;;;5138349;27;21013;-77
2021/12/01 07:15:12;;;;;;;315.33;40.23;;;9.10;99.90;;;;;;5138574;27;20434;-76
2021/12/01 07:17:40;;;;;;;237.97;26.57;;;9.10;99.90;;;;;;5156999;27;20548;-76
2021/12/01 07:20:10;;;;;;;252.23;30.03;;;9.10;99.90;;;;;;5138220;27;20447;-76
2021/12/01 07:22:38;;;;;;;124.83;23.93;;;9.10;99.90;;;;;;5138820;27;20556;-76
2021/12/01 07:25:09;;;;;;;283.30;29.93;;;9.10;99.90;;;;;;5157150;27;20485;-77
2021/12/01 07:27:37;;;;;;;212.83;24.97;;;9.00;99.90;;;;;;5156466;27;20521;-76
2021/12/01 07:30:06;;;;;;;233.20;33.50;;;9.00;99.90;;;;;;5156740;27;20515;-76
2021/12/01 07:32:35;;;;;;;196.77;25.93;;;9.00;99.90;;;;;;5137814;27;21025;-76
2021/12/01 07:35:03;;;;;;;188.67;23.03;;;9.00;99.90;;;;;;5137991;27;20477;-76
2021/12/01 07:37:31;;;;;;;223.17;29.03;;;9.00;99.90;;;;;;5137799;27;20466;-76
2021/12/01 07:39:59;;;;;;;275.93;35.27;;;9.00;99.90;;;;;;5137906;27;20503;-76
2021/12/01 07:42:29;;;;;;;249.43;34.27;;;9.00;99.90;;;;;;5156652;27;20460;-76
2021/12/01 07:45:00;;;;;;;248.00;40.00;;;9.00;99.90;;;;;;5156484;27;20421;-76
2021/12/01 07:47:28;;;;;;;238.97;42.80;;;9.00;99.90;;;;;;5156393;27;20462;-76
2021/12/01 07:49:57;;;;;;;274.70;46.97;;;9.00;99.90;;;;;;5137795;27;20810;-76
2021/12/01 07:52:25;;;;;;;189.67;31.60;;;9.00;99.90;;;;;;5156562;27;20634;-76
2021/12/01 07:54:53;;;;;;;170.93;32.87;;;8.90;99.90;;;;;;5137885;27;20775;-76
2021/12/01 07:57:21;;;;;;;221.23;35.10;;;8.90;99.90;;;;;;5156341;27;20466;-76
2021/12/01 07:59:51;;;;;;;224.00;36.50;;;8.90;99.90;;;;;;5156553;27;20476;-76
2021/12/01 08:02:19;;;;;;;224.53;35.13;;;8.90;99.90;;;;;;5156302;27;20461;-76
2021/12/01 08:04:47;;;;;;;234.37;29.97;;;8.90;99.90;;;;;;5137362;27;21015;-76
2021/12/01 08:07:15;;;;;;;279.57;36.37;;;8.90;99.90;;;;;;5156734;27;20438;-76
2021/12/01 08:09:43;;;;;;;296.03;39.37;;;8.90;99.90;;;;;;5137398;27;20445;-76
2021/12/01 08:12:12;;;;;;;179.20;30.33;;;8.90;99.90;;;;;;5155952;27;20472;-77
2021/12/01 08:14:41;;;;;;;313.03;34.40;;;8.90;99.90;;;;;;5156111;27;20433;-76
2021/12/01 08:17:11;;;;;;;241.23;38.57;;;8.90;99.90;;;;;;5155680;27;20461;-76
2021/12/01 08:19:39;;;;;;;343.07;30.60;;;8.90;99.90;;;;;;5155646;27;21025;-76
2021/12/01 08:22:09;;;;;;;83.53;27.20;;;8.90;99.90;;;;;;5137136;27;20468;-76
2021/12/01 08:24:37;;;;;;;240.53;35.50;;;8.90;99.90;;;;;;5155591;27;20444;-76
2021/12/01 08:27:06;;;;;;;282.87;43.73;;;8.90;99.90;;;;;;5155484;27;20429;-76
2021/12/01 08:29:34;;;;;;;311.13;34.50;;;8.90;99.90;;;;;;5136879;27;20456;-77
2021/12/01 08:32:03;;;;;;;169.90;31.53;;;8.90;99.90;;;;;;5136647;27;20522;-76
2021/12/01 08:34:32;;;;;;;230.33;30.47;;;8.90;99.90;;;;;;5136883;27;20540;-76
2021/12/01 08:37:00;;;;;;;326.63;53.07;;;8.90;99.90;;;;;;5155258;27;21038;-76
2021/12/01 08:39:29;;;;;;;421.40;40.70;;;8.90;99.90;;;;;;5135871;27;20481;-76
2021/12/01 08:41:57;;;;;;;362.90;42.60;;;8.90;99.90;;;;;;5155651;27;20552;-76
2021/12/01 08:44:25;;;;;;;166.47;22.37;;;8.90;99.90;;;;;;5136677;27;20451;-76
2021/12/01 08:46:53;;;;;;;259.13;33.20;;;8.90;99.90;;;;;;5136676;27;20971;-77
2021/12/01 08:49:21;;;;;;;249.03;30.77;;;8.90;99.90;;;;;;5155090;27;20437;-76
2021/12/01 08:51:51;;;;;;;221.80;35.17;;;8.90;99.90;;;;;;5155177;27;20545;-76
2021/12/01 08:54:19;;;;;;;125.33;26.10;;;8.90;99.90;;;;;;5136629;27;20916;-76
2021/12/01 08:56:47;;;;;;;215.03;25.90;;;8.90;99.90;;;;;;5155177;27;20526;-77
2021/12/01 08:59:15;;;;;;;393.33;53.77;;;8.90;99.90;;;;;;5155369;27;20472;-76
2021/12/01 09:01:42;;;;;;;233.93;34.10;;;8.90;99.90;;;;;;5136863;27;20851;-77
2021/12/01 09:04:11;;;;;;;307.83;51.63;;;8.90;99.90;;;;;;5155149;27;20440;-77
2021/12/01 09:06:39;;;;;;;312.43;37.83;;;8.90;99.90;;;;;;5136530;27;20445;-76
2021/12/01 09:09:09;;;;;;;340.83;41.60;;;8.90;99.90;;;;;;5136516;27;20465;-77
2021/12/01 09:11:37;;;;;;;188.13;27.17;;;8.90;99.90;;;;;;5136406;27;20454;-77
2021/12/01 09:14:05;;;;;;;285.43;33.17;;;8.90;99.90;;;;;;5136469;27;20802;-77
2021/12/01 09:16:33;;;;;;;421.37;50.30;;;8.90;99.90;;;;;;5136459;27;20441;-76
2021/12/01 09:19:02;;;;;;;350.63;47.90;;;8.90;99.90;;;;;;5136254;27;20995;-76
2021/12/01 09:21:30;;;;;;;311.30;29.20;;;8.90;99.90;;;;;;5136232;27;20479;-76
2021/12/01 09:24:01;;;;;;;247.77;29.27;;;9.00;99.90;;;;;;5155375;27;20428;-76
2021/12/01 09:26:31;;;;;;;365.70;43.03;;;9.00;99.90;;;;;;5136411;27;20441;-76
2021/12/01 09:29:00;;;;;;;337.37;31.13;;;9.00;99.90;;;;;;5154963;27;20433;-76
2021/12/01 09:31:29;;;;;;;216.37;30.10;;;9.00;99.90;;;;;;5136477;27;20536;-77
2021/12/01 09:33:57;;;;;;;212.70;35.77;;;9.00;99.90;;;;;;5146402;27;20453;-76
2021/12/01 09:36:26;;;;;;;211.23;36.77;;;9.00;99.90;;;;;;5166344;27;20437;-76
2021/12/01 09:38:54;;;;;;;170.43;29.87;;;9.00;99.90;;;;;;5148947;27;20574;-76
2021/12/01 09:41:23;;;;;;;310.73;33.97;;;9.00;99.90;;;;;;5149027;27;20445;-76
2021/12/01 09:43:53;;;;;;;283.70;37.53;;;9.00;99.90;;;;;;5148297;27;21003;-76
2021/12/01 09:46:22;;;;;;;218.87;25.17;;;9.00;99.90;;;;;;5161743;27;20483;-76
2021/12/01 09:48:50;;;;;;;218.27;28.40;;;9.00;99.90;;;;;;5162921;27;20441;-76
2021/12/01 09:51:19;;;;;;;159.73;23.60;;;9.00;99.90;;;;;;5145867;27;20495;-76
2021/12/01 09:53:48;;;;;;;233.43;28.33;;;9.00;99.90;;;;;;5145652;27;20537;-76
2021/12/01 09:56:17;;;;;;;267.80;33.47;;;9.00;99.90;;;;;;5148995;27;20478;-76
2021/12/01 09:58:45;;;;;;;254.87;31.47;;;9.00;99.90;;;;;;5144720;27;20479;-76
2021/12/01 10:01:18;;;;;;;250.23;23.40;;;9.00;99.90;;;;;;5160997;27;20458;-76
2021/12/01 10:03:46;;;;;;;178.17;21.87;;;9.00;99.90;;;;;;5142043;27;20472;-76
2021/12/01 10:06:18;;;;;;;282.10;43.73;;;9.00;99.90;;;;;;5139996;27;20441;-76
2021/12/01 10:08:49;;;;;;;355.30;43.70;;;9.00;99.90;;;;;;5139983;27;20464;-76
2021/12/01 10:11:19;;;;;;;471.17;54.17;;;9.00;99.90;;;;;;5158721;27;20417;-76
2021/12/01 10:13:50;;;;;;;290.07;30.37;;;9.10;99.90;;;;;;5139556;27;20472;-76
2021/12/01 10:16:20;;;;;;;301.87;24.43;;;9.10;99.90;;;;;;5158081;27;20513;-76
2021/12/01 10:18:50;;;;;;;220.57;28.90;;;9.10;99.90;;;;;;5158699;27;20552;-76
2021/12/01 10:21:21;;;;;;;334.27;33.00;;;9.10;99.90;;;;;;5139402;27;20481;-76
2021/12/01 10:23:51;;;;;;;278.60;35.90;;;9.20;99.90;;;;;;5158044;27;20809;-76
2021/12/01 10:26:22;;;;;;;424.40;46.90;;;9.20;99.90;;;;;;5158237;27;20938;-75
2021/12/01 10:28:53;;;;;;;316.10;32.07;;;9.20;99.90;;;;;;5140188;27;20845;-76
2021/12/01 10:31:35;;;;;;;309.37;33.20;;;9.20;99.90;;;;;;5139114;27;20573;-76
2021/12/01 10:34:26;;;;;;;252.17;42.00;;;9.20;99.90;;;;;;5139224;27;20448;-77
2021/12/01 10:37:18;;;;;;;329.07;38.30;;;9.30;99.90;;;;;;5139196;27;20850;-77
2021/12/01 10:39:49;;;;;;;233.73;29.00;;;9.30;99.90;;;;;;5138936;27;20559;-76
2021/12/01 10:42:18;;;;;;;255.03;31.10;;;9.30;99.90;;;;;;5139501;27;20529;-76
2021/12/01 10:44:58;;;;;;;211.53;28.27;;;9.30;99.90;;;;;;5138767;27;20974;-76
2021/12/01 10:47:37;;;;;;;375.43;40.07;;;9.30;99.90;;;;;;5139024;27;20967;-76
2021/12/01 10:50:07;;;;;;;304.10;34.03;;;9.30;99.90;;;;;;5157970;27;20888;-76
2021/12/01 10:52:37;;;;;;;461.63;54.50;;;9.30;99.90;;;;;;5138647;27;20457;-76
2021/12/01 10:55:10;;;;;;;375.87;48.10;;;9.40;99.90;;;;;;5157197;27;20855;-76
2021/12/01 10:57:40;;;;;;;186.60;39.53;;;9.40;99.90;;;;;;5139480;27;20447;-76
2021/12/01 11:00:18;;;;;;;313.50;38.10;;;9.40;99.90;;;;;;5138481;27;20502;-76
2021/12/01 11:02:47;;;;;;;324.03;38.37;;;9.40;99.90;;;;;;5137611;27;20472;-76
2021/12/01 11:05:31;;;;;;;221.97;23.30;;;9.40;99.90;;;;;;5138455;27;20456;-76
2021/12/01 11:08:11;;;;;;;273.50;31.23;;;9.40;99.90;;;;;;5156999;27;20433;-77
2021/12/01 11:10:39;;;;;;;244.40;40.23;;;9.40;99.90;;;;;;5139639;27;20438;-76
2021/12/01 11:13:08;;;;;;;212.70;32.30;;;9.40;99.90;;;;;;5157156;27;20449;-77
2021/12/01 11:15:38;;;;;;;404.67;44.70;;;9.40;99.90;;;;;;5138393;27;20548;-76
2021/12/01 11:18:20;;;;;;;273.47;30.73;;;9.40;99.90;;;;;;5156847;27;20435;-76
2021/12/01 11:21:08;;;;;;;452.00;54.53;;;9.50;99.90;;;;;;5138119;27;20453;-77
2021/12/01 11:23:39;;;;;;;225.23;31.57;;;9.50;99.90;;;;;;5156786;27;20457;-76
2021/12/01 11:26:11;;;;;;;262.10;25.47;;;9.50;99.90;;;;;;5156703;27;20492;-76
2021/12/01 11:28:41;;;;;;;121.60;20.87;;;9.60;99.90;;;;;;5138118;27;20928;-76
2021/12/01 11:31:13;;;;;;;335.93;39.83;;;9.60;99.90;;;;;;5137901;27;20457;-76
2021/12/01 11:33:44;;;;;;;350.53;33.90;;;9.70;99.90;;;;;;5137983;27;20506;-76
2021/12/01 11:36:15;;;;;;;271.40;45.37;;;9.70;99.90;;;;;;5138087;27;20510;-76
2021/12/01 11:38:44;;;;;;;394.27;45.50;;;9.70;99.90;;;;;;5137821;27;20489;-76
2021/12/01 11:41:12;;;;;;;404.50;63.47;;;9.70;99.90;;;;;;5137937;27;20470;-76
2021/12/01 11:43:40;;;;;;;229.73;33.77;;;9.70;99.90;;;;;;5156313;27;20465;-77
2021/12/01 11:46:09;;;;;;;323.23;51.23;;;9.70;99.90;;;;;;5156583;27;20520;-75
2021/12/01 11:48:40;;;;;;;369.20;44.67;;;9.70;99.90;;;;;;5137718;27;20474;-76
2021/12/01 11:51:15;;;;;;;123.07;31.57;;;9.70;99.90;;;;;;5138086;27;20430;-76
2021/12/01 11:53:45;;;;;;;278.00;44.93;;;9.70;99.90;;;;;;5138416;27;21088;-76
2021/12/01 11:56:17;;;;;;;238.03;30.70;;;9.70;99.90;;;;;;5137659;27;20818;-76
2021/12/01 11:59:00;;;;;;;315.93;34.23;;;9.70;99.90;;;;;;5156139;27;20449;-76
2021/12/01 12:01:46;;;;;;;215.53;32.90;;;9.80;99.90;;;;;;5156024;27;20418;-76
2021/12/01 12:04:37;;;;;;;189.93;27.67;;;9.80;99.90;;;;;;5156367;27;20450;-76
2021/12/01 12:07:10;;;;;;;231.03;30.80;;;9.80;99.90;;;;;;5137247;27;20441;-76
2021/12/01 12:10:12;;;;;;;227.27;28.10;;;9.80;99.90;;;;;;5137689;27;20444;-76
2021/12/01 12:13:00;;;;;;;309.53;50.57;;;9.80;99.90;;;;;;5137119;27;20465;-76
2021/12/01 12:15:46;;;;;;;297.27;40.43;;;9.80;99.90;;;;;;5137359;27;20822;-76
2021/12/01 12:18:30;;;;;;;451.07;70.33;;;9.80;99.90;;;;;;5137272;27;20441;-76
2021/12/01 12:21:12;;;;;;;347.03;66.87;;;9.80;99.90;;;;;;5154994;27;20536;-76
2021/12/01 12:23:44;;;;;;;214.70;33.63;;;9.80;99.90;;;;;;5137162;27;20564;-76
2021/12/01 12:26:13;;;;;;;230.67;53.87;;;9.80;99.90;;;;;;5155637;27;20900;-76
2021/12/01 12:28:43;;;;;;;426.47;87.63;;;9.80;99.90;;;;;;5137007;27;20441;-76
2021/12/01 12:31:27;;;;;;;367.57;72.17;;;9.80;99.90;;;;;;5155419;27;20456;-76
2021/12/01 12:33:57;;;;;;;39.63;29.03;;;9.80;99.90;;;;;;5136913;27;20433;-76
2021/12/01 12:36:45;;;;;;;180.33;47.80;;;9.80;99.90;;;;;;5155777;27;20430;-76
2021/12/01 12:39:16;;;;;;;50.23;31.97;;;9.80;99.90;;;;;;5123587;27;20488;-76
2021/12/01 12:42:04;;;;;;;127.70;48.30;;;9.80;99.90;;;;;;5136608;27;20929;-76
2021/12/01 12:44:35;;;;;;;53.57;26.70;;;9.70;99.90;;;;;;5136856;27;20477;-76
2021/12/01 12:47:27;;;;;;;357.60;49.10;;;9.80;99.90;;;;;;5136856;27;20441;-76